sensor_id;sensor_type;location;lat;lon;timestamp;P1;durP1;ratioP1;P2;durP2;ratioP2
73697;SDS011;62004;42.566;23.164;2022-09-03T00:00:16;20.33;;;11.65;;
73697;SDS011;62004;42.566;23.164;2022-09-03T00:05:37;16.38;;;11.10;;
73697;SDS011;62004;42.566;23.164;2022-09-03T00:13:30;21.83;;;11.45;;
73697;SDS011;62004;42.566;23.164;2022-09-03T00:15:59;20.73;;;11.32;;
73697;SDS011;62004;42.566;23.164;2022-09-03T00:18:26;18.77;;;11.50;;
73697;SDS011;62004;42.566;23.164;2022-09-03T00:23:57;17.92;;;10.90;;
73697;SDS011;62004;42.566;23.164;2022-09-03T00:26:26;17.70;;;9.93;;
73697;SDS011;62004;42.566;23.164;2022-09-03T00:34:05;15.23;;;8.82;;
73697;SDS011;62004;42.566;23.164;2022-09-03T00:36:35;23.48;;;11.23;;
73697;SDS011;62004;42.566;23.164;2022-09-03T00:39:11;12.32;;;8.77;;
73697;SDS011;62004;42.566;23.164;2022-09-03T00:41:42;12.52;;;8.23;;
73697;SDS011;62004;42.566;23.164;2022-09-03T00:44:26;13.88;;;9.23;;
73697;SDS011;62004;42.566;23.164;2022-09-03T01:00:46;12.20;;;8.15;;
73697;SDS011;62004;42.566;23.164;2022-09-03T01:03:12;15.95;;;9.70;;
73697;SDS011;62004;42.566;23.164;2022-09-03T01:30:18;11.50;;;8.85;;
73697;SDS011;62004;42.566;23.164;2022-09-03T01:33:00;10.48;;;7.07;;
73697;SDS011;62004;42.566;23.164;2022-09-03T01:35:52;12.02;;;7.57;;
73697;SDS011;62004;42.566;23.164;2022-09-03T01:46:23;10.75;;;7.38;;
73697;SDS011;62004;42.566;23.164;2022-09-03T01:51:31;15.35;;;9.00;;
73697;SDS011;62004;42.566;23.164;2022-09-03T01:56:49;12.68;;;8.20;;
73697;SDS011;62004;42.566;23.164;2022-09-03T01:59:29;10.52;;;7.85;;
73697;SDS011;62004;42.566;23.164;2022-09-03T02:04:38;12.75;;;8.93;;
73697;SDS011;62004;42.566;23.164;2022-09-03T02:07:03;11.35;;;9.05;;
73697;SDS011;62004;42.566;23.164;2022-09-03T02:09:30;10.88;;;7.95;;
73697;SDS011;62004;42.566;23.164;2022-09-03T02:11:57;9.20;;;6.32;;
73697;SDS011;62004;42.566;23.164;2022-09-03T02:14:28;10.80;;;8.45;;
73697;SDS011;62004;42.566;23.164;2022-09-03T02:16:54;9.50;;;7.90;;
73697;SDS011;62004;42.566;23.164;2022-09-03T02:19:21;9.52;;;7.28;;
73697;SDS011;62004;42.566;23.164;2022-09-03T02:21:52;12.73;;;8.68;;
73697;SDS011;62004;42.566;23.164;2022-09-03T02:24:18;12.77;;;8.93;;
73697;SDS011;62004;42.566;23.164;2022-09-03T02:26:44;12.55;;;7.60;;
73697;SDS011;62004;42.566;23.164;2022-09-03T02:29:12;10.60;;;7.65;;
73697;SDS011;62004;42.566;23.164;2022-09-03T02:31:38;12.02;;;5.97;;
73697;SDS011;62004;42.566;23.164;2022-09-03T02:34:04;9.40;;;7.15;;
73697;SDS011;62004;42.566;23.164;2022-09-03T02:36:30;11.88;;;7.30;;
73697;SDS011;62004;42.566;23.164;2022-09-03T02:38:58;9.88;;;7.00;;
73697;SDS011;62004;42.566;23.164;2022-09-03T02:41:23;7.43;;;5.45;;
73697;SDS011;62004;42.566;23.164;2022-09-03T02:44:34;11.80;;;7.18;;
73697;SDS011;62004;42.566;23.164;2022-09-03T02:46:53;8.85;;;7.38;;
73697;SDS011;62004;42.566;23.164;2022-09-03T02:49:26;8.85;;;7.00;;
73697;SDS011;62004;42.566;23.164;2022-09-03T02:51:56;10.65;;;7.43;;
73697;SDS011;62004;42.566;23.164;2022-09-03T02:54:25;9.50;;;7.63;;
73697;SDS011;62004;42.566;23.164;2022-09-03T02:56:52;11.27;;;7.47;;
73697;SDS011;62004;42.566;23.164;2022-09-03T02:59:18;10.27;;;8.40;;
73697;SDS011;62004;42.566;23.164;2022-09-03T03:01:43;11.07;;;8.23;;
73697;SDS011;62004;42.566;23.164;2022-09-03T03:04:08;11.07;;;8.02;;
73697;SDS011;62004;42.566;23.164;2022-09-03T03:06:34;10.60;;;8.35;;
73697;SDS011;62004;42.566;23.164;2022-09-03T03:08:59;9.32;;;6.97;;
73697;SDS011;62004;42.566;23.164;2022-09-03T03:11:29;11.45;;;8.35;;
73697;SDS011;62004;42.566;23.164;2022-09-03T03:13:56;10.20;;;7.85;;
73697;SDS011;62004;42.566;23.164;2022-09-03T03:16:21;8.75;;;7.13;;
73697;SDS011;62004;42.566;23.164;2022-09-03T03:18:46;8.77;;;7.07;;
73697;SDS011;62004;42.566;23.164;2022-09-03T03:21:16;12.27;;;8.55;;
73697;SDS011;62004;42.566;23.164;2022-09-03T03:23:43;9.27;;;7.40;;
73697;SDS011;62004;42.566;23.164;2022-09-03T03:26:09;6.78;;;6.00;;
73697;SDS011;62004;42.566;23.164;2022-09-03T03:28:37;7.85;;;6.30;;
73697;SDS011;62004;42.566;23.164;2022-09-03T03:31:06;7.65;;;6.68;;
73697;SDS011;62004;42.566;23.164;2022-09-03T03:33:41;8.52;;;7.22;;
73697;SDS011;62004;42.566;23.164;2022-09-03T03:36:08;11.55;;;8.27;;
73697;SDS011;62004;42.566;23.164;2022-09-03T03:38:34;7.88;;;6.70;;
73697;SDS011;62004;42.566;23.164;2022-09-03T03:41:05;9.70;;;8.25;;
73697;SDS011;62004;42.566;23.164;2022-09-03T03:43:34;10.55;;;7.75;;
73697;SDS011;62004;42.566;23.164;2022-09-03T03:46:00;10.82;;;8.00;;
73697;SDS011;62004;42.566;23.164;2022-09-03T03:48:25;8.95;;;7.22;;
73697;SDS011;62004;42.566;23.164;2022-09-03T03:50:51;11.57;;;8.77;;
73697;SDS011;62004;42.566;23.164;2022-09-03T03:53:17;13.70;;;9.02;;
73697;SDS011;62004;42.566;23.164;2022-09-03T03:55:42;10.13;;;8.65;;
73697;SDS011;62004;42.566;23.164;2022-09-03T03:58:08;8.80;;;6.10;;
73697;SDS011;62004;42.566;23.164;2022-09-03T04:00:33;11.00;;;6.97;;
73697;SDS011;62004;42.566;23.164;2022-09-03T04:03:02;12.27;;;8.07;;
73697;SDS011;62004;42.566;23.164;2022-09-03T04:05:28;10.18;;;7.20;;
73697;SDS011;62004;42.566;23.164;2022-09-03T04:07:53;10.23;;;7.75;;
73697;SDS011;62004;42.566;23.164;2022-09-03T04:10:19;12.23;;;8.50;;
73697;SDS011;62004;42.566;23.164;2022-09-03T04:12:44;12.20;;;8.13;;
73697;SDS011;62004;42.566;23.164;2022-09-03T04:15:10;10.35;;;7.60;;
73697;SDS011;62004;42.566;23.164;2022-09-03T04:17:35;12.63;;;7.32;;
73697;SDS011;62004;42.566;23.164;2022-09-03T04:20:01;9.27;;;5.90;;
73697;SDS011;62004;42.566;23.164;2022-09-03T04:22:27;8.75;;;6.63;;
73697;SDS011;62004;42.566;23.164;2022-09-03T04:24:53;7.82;;;6.60;;
73697;SDS011;62004;42.566;23.164;2022-09-03T04:27:18;8.55;;;7.32;;
73697;SDS011;62004;42.566;23.164;2022-09-03T04:29:44;8.65;;;7.32;;
73697;SDS011;62004;42.566;23.164;2022-09-03T04:32:09;8.32;;;6.72;;
73697;SDS011;62004;42.566;23.164;2022-09-03T04:34:53;10.85;;;7.80;;
73697;SDS011;62004;42.566;23.164;2022-09-03T04:37:19;11.45;;;8.45;;
73697;SDS011;62004;42.566;23.164;2022-09-03T04:39:44;10.18;;;7.40;;
73697;SDS011;62004;42.566;23.164;2022-09-03T04:42:10;10.95;;;7.35;;
73697;SDS011;62004;42.566;23.164;2022-09-03T04:44:35;9.02;;;6.30;;
73697;SDS011;62004;42.566;23.164;2022-09-03T04:47:03;11.35;;;8.40;;
73697;SDS011;62004;42.566;23.164;2022-09-03T04:49:29;9.43;;;7.53;;
73697;SDS011;62004;42.566;23.164;2022-09-03T04:51:54;12.98;;;8.77;;
73697;SDS011;62004;42.566;23.164;2022-09-03T04:54:20;11.43;;;8.68;;
73697;SDS011;62004;42.566;23.164;2022-09-03T04:56:45;11.18;;;8.63;;
73697;SDS011;62004;42.566;23.164;2022-09-03T04:59:11;12.43;;;8.93;;
73697;SDS011;62004;42.566;23.164;2022-09-03T05:01:38;13.40;;;8.50;;
73697;SDS011;62004;42.566;23.164;2022-09-03T05:04:05;11.70;;;6.72;;
73697;SDS011;62004;42.566;23.164;2022-09-03T05:06:31;11.25;;;7.82;;
73697;SDS011;62004;42.566;23.164;2022-09-03T05:08:58;11.75;;;7.70;;
73697;SDS011;62004;42.566;23.164;2022-09-03T05:11:24;11.48;;;7.90;;
73697;SDS011;62004;42.566;23.164;2022-09-03T05:13:51;11.95;;;7.90;;
73697;SDS011;62004;42.566;23.164;2022-09-03T05:16:18;12.77;;;8.77;;
73697;SDS011;62004;42.566;23.164;2022-09-03T05:18:44;7.63;;;6.28;;
73697;SDS011;62004;42.566;23.164;2022-09-03T05:21:11;10.32;;;7.18;;
73697;SDS011;62004;42.566;23.164;2022-09-03T05:23:39;13.35;;;7.75;;
73697;SDS011;62004;42.566;23.164;2022-09-03T05:26:07;9.85;;;7.07;;
73697;SDS011;62004;42.566;23.164;2022-09-03T05:28:34;10.85;;;7.50;;
73697;SDS011;62004;42.566;23.164;2022-09-03T05:31:02;7.63;;;6.32;;
73697;SDS011;62004;42.566;23.164;2022-09-03T05:33:32;8.63;;;6.00;;
73697;SDS011;62004;42.566;23.164;2022-09-03T05:36:01;7.53;;;6.40;;
73697;SDS011;62004;42.566;23.164;2022-09-03T05:38:31;7.13;;;5.75;;
73697;SDS011;62004;42.566;23.164;2022-09-03T05:41:00;8.52;;;4.93;;
73697;SDS011;62004;42.566;23.164;2022-09-03T05:43:27;8.60;;;6.68;;
73697;SDS011;62004;42.566;23.164;2022-09-03T05:45:56;5.97;;;5.25;;
73697;SDS011;62004;42.566;23.164;2022-09-03T05:48:23;5.93;;;4.90;;
73697;SDS011;62004;42.566;23.164;2022-09-03T05:50:48;7.80;;;5.25;;
73697;SDS011;62004;42.566;23.164;2022-09-03T05:53:14;6.78;;;4.80;;
73697;SDS011;62004;42.566;23.164;2022-09-03T05:55:40;6.15;;;5.40;;
73697;SDS011;62004;42.566;23.164;2022-09-03T05:58:06;8.82;;;5.05;;
73697;SDS011;62004;42.566;23.164;2022-09-03T06:00:31;6.45;;;4.82;;
73697;SDS011;62004;42.566;23.164;2022-09-03T06:02:57;5.95;;;5.38;;
73697;SDS011;62004;42.566;23.164;2022-09-03T06:05:22;5.53;;;5.03;;
73697;SDS011;62004;42.566;23.164;2022-09-03T06:07:48;5.75;;;5.18;;
73697;SDS011;62004;42.566;23.164;2022-09-03T06:10:15;8.43;;;6.40;;
73697;SDS011;62004;42.566;23.164;2022-09-03T06:12:43;5.70;;;4.55;;
73697;SDS011;62004;42.566;23.164;2022-09-03T06:15:14;6.35;;;5.40;;
73697;SDS011;62004;42.566;23.164;2022-09-03T06:17:40;6.53;;;5.93;;
73697;SDS011;62004;42.566;23.164;2022-09-03T06:20:06;8.48;;;6.40;;
73697;SDS011;62004;42.566;23.164;2022-09-03T06:22:32;8.52;;;6.07;;
73697;SDS011;62004;42.566;23.164;2022-09-03T06:24:58;5.28;;;4.10;;
73697;SDS011;62004;42.566;23.164;2022-09-03T06:27:23;6.22;;;5.57;;
73697;SDS011;62004;42.566;23.164;2022-09-03T06:29:49;6.68;;;5.97;;
73697;SDS011;62004;42.566;23.164;2022-09-03T06:32:14;8.80;;;5.85;;
73697;SDS011;62004;42.566;23.164;2022-09-03T06:34:42;7.88;;;5.47;;
73697;SDS011;62004;42.566;23.164;2022-09-03T06:37:08;7.93;;;6.20;;
73697;SDS011;62004;42.566;23.164;2022-09-03T06:39:33;6.22;;;5.63;;
73697;SDS011;62004;42.566;23.164;2022-09-03T06:41:59;7.70;;;5.57;;
73697;SDS011;62004;42.566;23.164;2022-09-03T06:44:24;7.65;;;5.53;;
73697;SDS011;62004;42.566;23.164;2022-09-03T06:46:50;6.05;;;5.45;;
73697;SDS011;62004;42.566;23.164;2022-09-03T06:49:17;7.03;;;5.78;;
73697;SDS011;62004;42.566;23.164;2022-09-03T06:51:43;10.57;;;6.53;;
73697;SDS011;62004;42.566;23.164;2022-09-03T06:54:10;6.97;;;5.50;;
73697;SDS011;62004;42.566;23.164;2022-09-03T06:56:36;6.10;;;5.30;;
73697;SDS011;62004;42.566;23.164;2022-09-03T06:59:04;6.40;;;5.80;;
73697;SDS011;62004;42.566;23.164;2022-09-03T07:01:32;5.90;;;4.18;;
73697;SDS011;62004;42.566;23.164;2022-09-03T07:03:59;4.70;;;4.30;;
73697;SDS011;62004;42.566;23.164;2022-09-03T07:06:32;5.35;;;4.63;;
73697;SDS011;62004;42.566;23.164;2022-09-03T07:09:02;4.97;;;4.45;;
73697;SDS011;62004;42.566;23.164;2022-09-03T07:11:29;5.55;;;4.80;;
73697;SDS011;62004;42.566;23.164;2022-09-03T07:13:57;5.57;;;4.30;;
73697;SDS011;62004;42.566;23.164;2022-09-03T07:16:27;5.10;;;4.68;;
73697;SDS011;62004;42.566;23.164;2022-09-03T07:18:54;6.82;;;4.93;;
73697;SDS011;62004;42.566;23.164;2022-09-03T07:21:21;7.13;;;5.13;;
73697;SDS011;62004;42.566;23.164;2022-09-03T07:23:48;6.05;;;5.43;;
73697;SDS011;62004;42.566;23.164;2022-09-03T07:26:17;6.03;;;5.22;;
73697;SDS011;62004;42.566;23.164;2022-09-03T07:28:46;6.28;;;5.38;;
73697;SDS011;62004;42.566;23.164;2022-09-03T07:33:51;5.38;;;4.50;;
73697;SDS011;62004;42.566;23.164;2022-09-03T07:36:19;5.68;;;4.78;;
73697;SDS011;62004;42.566;23.164;2022-09-03T07:38:45;5.22;;;4.72;;
73697;SDS011;62004;42.566;23.164;2022-09-03T07:41:12;4.57;;;4.18;;
73697;SDS011;62004;42.566;23.164;2022-09-03T07:43:39;6.43;;;4.65;;
73697;SDS011;62004;42.566;23.164;2022-09-03T07:46:11;5.80;;;5.30;;
73697;SDS011;62004;42.566;23.164;2022-09-03T07:48:41;6.78;;;5.32;;
73697;SDS011;62004;42.566;23.164;2022-09-03T07:51:07;6.07;;;5.32;;
73697;SDS011;62004;42.566;23.164;2022-09-03T07:53:33;4.97;;;4.20;;
73697;SDS011;62004;42.566;23.164;2022-09-03T07:56:03;7.32;;;6.30;;
73697;SDS011;62004;42.566;23.164;2022-09-03T07:58:30;5.63;;;5.10;;
73697;SDS011;62004;42.566;23.164;2022-09-03T08:00:57;6.47;;;5.85;;
73697;SDS011;62004;42.566;23.164;2022-09-03T08:03:22;9.13;;;6.10;;
73697;SDS011;62004;42.566;23.164;2022-09-03T08:05:48;5.95;;;5.38;;
73697;SDS011;62004;42.566;23.164;2022-09-03T08:08:14;5.75;;;5.15;;
73697;SDS011;62004;42.566;23.164;2022-09-03T08:10:39;7.22;;;6.03;;
73697;SDS011;62004;42.566;23.164;2022-09-03T08:13:05;6.00;;;5.43;;
73697;SDS011;62004;42.566;23.164;2022-09-03T08:15:31;5.25;;;4.75;;
73697;SDS011;62004;42.566;23.164;2022-09-03T08:17:58;6.05;;;5.50;;
73697;SDS011;62004;42.566;23.164;2022-09-03T08:20:24;6.43;;;5.82;;
73697;SDS011;62004;42.566;23.164;2022-09-03T08:22:50;5.47;;;5.00;;
73697;SDS011;62004;42.566;23.164;2022-09-03T08:25:16;5.57;;;5.18;;
73697;SDS011;62004;42.566;23.164;2022-09-03T08:27:41;5.90;;;5.30;;
73697;SDS011;62004;42.566;23.164;2022-09-03T08:30:07;5.88;;;5.25;;
73697;SDS011;62004;42.566;23.164;2022-09-03T08:32:35;6.13;;;5.63;;
73697;SDS011;62004;42.566;23.164;2022-09-03T08:35:02;5.13;;;4.45;;
73697;SDS011;62004;42.566;23.164;2022-09-03T08:37:29;5.00;;;4.60;;
73697;SDS011;62004;42.566;23.164;2022-09-03T08:39:57;5.22;;;4.82;;
73697;SDS011;62004;42.566;23.164;2022-09-03T08:45:07;5.00;;;4.28;;
73697;SDS011;62004;42.566;23.164;2022-09-03T08:47:39;5.78;;;5.28;;
73697;SDS011;62004;42.566;23.164;2022-09-03T08:53:00;7.47;;;5.35;;
73697;SDS011;62004;42.566;23.164;2022-09-03T08:58:15;4.60;;;4.18;;
73697;SDS011;62004;42.566;23.164;2022-09-03T09:00:47;5.07;;;4.38;;
73697;SDS011;62004;42.566;23.164;2022-09-03T09:08:56;4.65;;;3.53;;
73697;SDS011;62004;42.566;23.164;2022-09-03T09:14:02;4.80;;;4.40;;
73697;SDS011;62004;42.566;23.164;2022-09-03T09:16:44;5.72;;;5.22;;
73697;SDS011;62004;42.566;23.164;2022-09-03T09:19:33;4.93;;;4.53;;
73697;SDS011;62004;42.566;23.164;2022-09-03T09:24:48;5.20;;;4.80;;
73697;SDS011;62004;42.566;23.164;2022-09-03T09:27:15;5.75;;;5.25;;
73697;SDS011;62004;42.566;23.164;2022-09-03T09:29:41;7.47;;;5.30;;
73697;SDS011;62004;42.566;23.164;2022-09-03T09:32:09;5.05;;;4.65;;
73697;SDS011;62004;42.566;23.164;2022-09-03T09:34:36;5.65;;;5.15;;
73697;SDS011;62004;42.566;23.164;2022-09-03T09:37:03;5.35;;;4.85;;
73697;SDS011;62004;42.566;23.164;2022-09-03T09:39:30;6.13;;;5.57;;
73697;SDS011;62004;42.566;23.164;2022-09-03T09:41:56;5.07;;;4.68;;
73697;SDS011;62004;42.566;23.164;2022-09-03T09:44:42;5.45;;;4.95;;
73697;SDS011;62004;42.566;23.164;2022-09-03T09:52:11;6.15;;;5.65;;
73697;SDS011;62004;42.566;23.164;2022-09-03T09:54:39;6.22;;;4.90;;
73697;SDS011;62004;42.566;23.164;2022-09-03T09:57:06;5.70;;;5.20;;
73697;SDS011;62004;42.566;23.164;2022-09-03T09:59:33;5.75;;;5.25;;
73697;SDS011;62004;42.566;23.164;2022-09-03T10:02:10;5.20;;;4.68;;
73697;SDS011;62004;42.566;23.164;2022-09-03T10:04:37;5.15;;;4.65;;
73697;SDS011;62004;42.566;23.164;2022-09-03T10:07:15;4.88;;;4.47;;
73697;SDS011;62004;42.566;23.164;2022-09-03T10:10:02;4.50;;;4.20;;
73697;SDS011;62004;42.566;23.164;2022-09-03T10:12:38;4.40;;;4.00;;
73697;SDS011;62004;42.566;23.164;2022-09-03T10:20:19;4.63;;;4.03;;
73697;SDS011;62004;42.566;23.164;2022-09-03T10:25:39;4.70;;;4.30;;
73697;SDS011;62004;42.566;23.164;2022-09-03T10:28:25;3.70;;;3.40;;
73697;SDS011;62004;42.566;23.164;2022-09-03T10:30:55;4.10;;;3.47;;
73697;SDS011;62004;42.566;23.164;2022-09-03T10:33:26;3.90;;;3.60;;
73697;SDS011;62004;42.566;23.164;2022-09-03T10:36:04;2.88;;;2.67;;
73697;SDS011;62004;42.566;23.164;2022-09-03T10:38:36;4.20;;;3.80;;
73697;SDS011;62004;42.566;23.164;2022-09-03T10:41:10;4.05;;;3.75;;
73697;SDS011;62004;42.566;23.164;2022-09-03T10:46:10;5.68;;;3.15;;
73697;SDS011;62004;42.566;23.164;2022-09-03T10:48:52;2.97;;;2.78;;
73697;SDS011;62004;42.566;23.164;2022-09-03T10:51:41;2.50;;;2.33;;
73697;SDS011;62004;42.566;23.164;2022-09-03T10:59:48;2.22;;;2.00;;
73697;SDS011;62004;42.566;23.164;2022-09-03T11:05:36;3.13;;;2.92;;
73697;SDS011;62004;42.566;23.164;2022-09-03T11:08:15;2.97;;;2.78;;
73697;SDS011;62004;42.566;23.164;2022-09-03T11:10:50;3.20;;;3.00;;
73697;SDS011;62004;42.566;23.164;2022-09-03T11:15:55;3.72;;;3.42;;
73697;SDS011;62004;42.566;23.164;2022-09-03T11:23:19;3.22;;;3.00;;
73697;SDS011;62004;42.566;23.164;2022-09-03T11:25:50;3.30;;;3.10;;
73697;SDS011;62004;42.566;23.164;2022-09-03T11:33:37;2.85;;;2.38;;
73697;SDS011;62004;42.566;23.164;2022-09-03T11:36:30;3.60;;;1.92;;
73697;SDS011;62004;42.566;23.164;2022-09-03T11:38:57;2.95;;;2.75;;
73697;SDS011;62004;42.566;23.164;2022-09-03T11:41:25;5.70;;;3.47;;
73697;SDS011;62004;42.566;23.164;2022-09-03T11:43:51;4.40;;;2.95;;
73697;SDS011;62004;42.566;23.164;2022-09-03T11:48:47;2.60;;;2.40;;
73697;SDS011;62004;42.566;23.164;2022-09-03T11:54:06;16.80;;;3.15;;
73697;SDS011;62004;42.566;23.164;2022-09-03T11:56:44;3.10;;;2.90;;
73697;SDS011;62004;42.566;23.164;2022-09-03T11:59:18;2.90;;;2.70;;
73697;SDS011;62004;42.566;23.164;2022-09-03T12:15:26;2.63;;;2.05;;
73697;SDS011;62004;42.566;23.164;2022-09-03T12:18:01;6.72;;;3.55;;
73697;SDS011;62004;42.566;23.164;2022-09-03T12:20:46;3.50;;;3.20;;
73697;SDS011;62004;42.566;23.164;2022-09-03T12:26:12;4.55;;;3.92;;
73697;SDS011;62004;42.566;23.164;2022-09-03T12:28:40;3.63;;;3.17;;
73697;SDS011;62004;42.566;23.164;2022-09-03T12:31:14;2.80;;;2.33;;
73697;SDS011;62004;42.566;23.164;2022-09-03T12:33:54;3.42;;;3.22;;
73697;SDS011;62004;42.566;23.164;2022-09-03T12:36:45;4.30;;;3.40;;
73697;SDS011;62004;42.566;23.164;2022-09-03T12:41:37;3.80;;;3.42;;
73697;SDS011;62004;42.566;23.164;2022-09-03T12:44:03;4.00;;;3.70;;
73697;SDS011;62004;42.566;23.164;2022-09-03T12:46:30;3.60;;;3.30;;
73697;SDS011;62004;42.566;23.164;2022-09-03T12:48:57;3.80;;;3.50;;
73697;SDS011;62004;42.566;23.164;2022-09-03T12:51:35;4.70;;;3.15;;
73697;SDS011;62004;42.566;23.164;2022-09-03T12:54:03;3.95;;;3.65;;
73697;SDS011;62004;42.566;23.164;2022-09-03T12:56:31;3.28;;;2.97;;
73697;SDS011;62004;42.566;23.164;2022-09-03T12:59:09;3.40;;;3.10;;
73697;SDS011;62004;42.566;23.164;2022-09-03T13:01:59;3.75;;;3.45;;
73697;SDS011;62004;42.566;23.164;2022-09-03T13:04:26;4.40;;;3.45;;
73697;SDS011;62004;42.566;23.164;2022-09-03T13:06:55;3.38;;;3.08;;
73697;SDS011;62004;42.566;23.164;2022-09-03T13:09:25;3.47;;;3.17;;
73697;SDS011;62004;42.566;23.164;2022-09-03T13:11:53;4.53;;;3.55;;
73697;SDS011;62004;42.566;23.164;2022-09-03T13:14:19;10.65;;;3.60;;
73697;SDS011;62004;42.566;23.164;2022-09-03T13:22:00;4.38;;;3.97;;
73697;SDS011;62004;42.566;23.164;2022-09-03T13:24:54;3.40;;;3.15;;
73697;SDS011;62004;42.566;23.164;2022-09-03T13:35:38;3.38;;;3.15;;
73697;SDS011;62004;42.566;23.164;2022-09-03T13:46:15;4.65;;;4.20;;
73697;SDS011;62004;42.566;23.164;2022-09-03T13:48:42;4.32;;;3.92;;
73697;SDS011;62004;42.566;23.164;2022-09-03T13:51:28;4.55;;;4.07;;
73697;SDS011;62004;42.566;23.164;2022-09-03T14:07:43;4.20;;;3.47;;
73697;SDS011;62004;42.566;23.164;2022-09-03T14:16:11;4.68;;;4.28;;
73697;SDS011;62004;42.566;23.164;2022-09-03T14:21:28;6.10;;;4.35;;
73697;SDS011;62004;42.566;23.164;2022-09-03T14:24:02;4.63;;;4.22;;
73697;SDS011;62004;42.566;23.164;2022-09-03T14:26:30;3.97;;;3.65;;
73697;SDS011;62004;42.566;23.164;2022-09-03T14:28:58;4.85;;;4.35;;
73697;SDS011;62004;42.566;23.164;2022-09-03T14:40:21;4.47;;;4.07;;
73697;SDS011;62004;42.566;23.164;2022-09-03T14:48:32;4.57;;;4.18;;
73697;SDS011;62004;42.566;23.164;2022-09-03T14:56:49;5.75;;;4.35;;
73697;SDS011;62004;42.566;23.164;2022-09-03T14:59:43;5.35;;;3.88;;
73697;SDS011;62004;42.566;23.164;2022-09-03T15:10:03;7.60;;;5.00;;
73697;SDS011;62004;42.566;23.164;2022-09-03T15:12:34;5.72;;;4.05;;
73697;SDS011;62004;42.566;23.164;2022-09-03T15:15:12;4.75;;;3.78;;
73697;SDS011;62004;42.566;23.164;2022-09-03T15:26:32;4.35;;;3.85;;
73697;SDS011;62004;42.566;23.164;2022-09-03T15:37:44;4.57;;;3.80;;
73697;SDS011;62004;42.566;23.164;2022-09-03T15:42:54;6.00;;;4.13;;
73697;SDS011;62004;42.566;23.164;2022-09-03T15:47:53;4.18;;;3.58;;
73697;SDS011;62004;42.566;23.164;2022-09-03T16:02:06;5.43;;;4.93;;
73697;SDS011;62004;42.566;23.164;2022-09-03T16:04:47;4.18;;;3.85;;
73697;SDS011;62004;42.566;23.164;2022-09-03T16:07:26;4.93;;;4.45;;
73697;SDS011;62004;42.566;23.164;2022-09-03T16:10:09;5.18;;;4.47;;
73697;SDS011;62004;42.566;23.164;2022-09-03T16:12:51;5.80;;;4.30;;
73697;SDS011;62004;42.566;23.164;2022-09-03T16:15:39;5.55;;;4.95;;
73697;SDS011;62004;42.566;23.164;2022-09-03T16:29:26;6.18;;;4.75;;
73697;SDS011;62004;42.566;23.164;2022-09-03T16:34:52;6.68;;;4.90;;
73697;SDS011;62004;42.566;23.164;2022-09-03T16:45:37;5.57;;;4.78;;
73697;SDS011;62004;42.566;23.164;2022-09-03T16:48:19;5.35;;;4.85;;
73697;SDS011;62004;42.566;23.164;2022-09-03T16:59:45;5.90;;;4.88;;
73697;SDS011;62004;42.566;23.164;2022-09-03T17:04:52;8.02;;;6.68;;
73697;SDS011;62004;42.566;23.164;2022-09-03T17:08:17;7.38;;;6.47;;
73697;SDS011;62004;42.566;23.164;2022-09-03T17:24:36;7.95;;;6.18;;
73697;SDS011;62004;42.566;23.164;2022-09-03T17:30:46;6.72;;;5.72;;
73697;SDS011;62004;42.566;23.164;2022-09-03T17:49:20;6.63;;;5.18;;
73697;SDS011;62004;42.566;23.164;2022-09-03T17:52:03;7.90;;;6.72;;
73697;SDS011;62004;42.566;23.164;2022-09-03T18:00:07;6.22;;;4.95;;
73697;SDS011;62004;42.566;23.164;2022-09-03T18:10:38;7.43;;;5.97;;
73697;SDS011;62004;42.566;23.164;2022-09-03T18:16:34;6.70;;;5.30;;
73697;SDS011;62004;42.566;23.164;2022-09-03T18:19:11;6.28;;;5.35;;
73697;SDS011;62004;42.566;23.164;2022-09-03T18:21:44;6.18;;;5.57;;
73697;SDS011;62004;42.566;23.164;2022-09-03T18:24:44;7.22;;;6.05;;
73697;SDS011;62004;42.566;23.164;2022-09-03T18:27:35;7.50;;;5.20;;
73697;SDS011;62004;42.566;23.164;2022-09-03T18:30:22;5.80;;;5.20;;
73697;SDS011;62004;42.566;23.164;2022-09-03T18:33:06;6.13;;;5.07;;
73697;SDS011;62004;42.566;23.164;2022-09-03T18:35:50;7.30;;;4.72;;
73697;SDS011;62004;42.566;23.164;2022-09-03T18:38:35;7.22;;;5.72;;
73697;SDS011;62004;42.566;23.164;2022-09-03T18:41:25;7.18;;;5.80;;
73697;SDS011;62004;42.566;23.164;2022-09-03T18:53:02;8.65;;;6.97;;
73697;SDS011;62004;42.566;23.164;2022-09-03T19:01:50;7.05;;;6.35;;
73697;SDS011;62004;42.566;23.164;2022-09-03T19:04:58;8.48;;;5.43;;
73697;SDS011;62004;42.566;23.164;2022-09-03T19:11:07;6.97;;;5.57;;
73697;SDS011;62004;42.566;23.164;2022-09-03T19:13:55;7.63;;;5.55;;
73697;SDS011;62004;42.566;23.164;2022-09-03T19:20:11;12.55;;;6.60;;
73697;SDS011;62004;42.566;23.164;2022-09-03T19:23:01;9.48;;;7.57;;
73697;SDS011;62004;42.566;23.164;2022-09-03T19:25:46;7.95;;;6.03;;
73697;SDS011;62004;42.566;23.164;2022-09-03T19:28:30;11.63;;;5.88;;
73697;SDS011;62004;42.566;23.164;2022-09-03T19:43:47;8.90;;;5.60;;
73697;SDS011;62004;42.566;23.164;2022-09-03T19:46:41;5.95;;;5.32;;
73697;SDS011;62004;42.566;23.164;2022-09-03T19:52:53;5.40;;;4.82;;
73697;SDS011;62004;42.566;23.164;2022-09-03T19:56:17;5.85;;;5.15;;
73697;SDS011;62004;42.566;23.164;2022-09-03T19:59:06;9.88;;;5.43;;
73697;SDS011;62004;42.566;23.164;2022-09-03T20:01:54;6.70;;;5.38;;
73697;SDS011;62004;42.566;23.164;2022-09-03T20:04:41;7.93;;;4.57;;
73697;SDS011;62004;42.566;23.164;2022-09-03T20:07:28;5.63;;;5.03;;
73697;SDS011;62004;42.566;23.164;2022-09-03T20:10:12;7.32;;;4.95;;
73697;SDS011;62004;42.566;23.164;2022-09-03T20:12:52;6.20;;;4.88;;
73697;SDS011;62004;42.566;23.164;2022-09-03T20:15:25;5.78;;;4.97;;
73697;SDS011;62004;42.566;23.164;2022-09-03T20:18:12;6.78;;;4.85;;
73697;SDS011;62004;42.566;23.164;2022-09-03T20:20:46;5.85;;;4.40;;
73697;SDS011;62004;42.566;23.164;2022-09-03T20:26:39;9.00;;;5.30;;
73697;SDS011;62004;42.566;23.164;2022-09-03T20:29:23;7.28;;;4.15;;
73697;SDS011;62004;42.566;23.164;2022-09-03T20:37:43;5.28;;;4.35;;
73697;SDS011;62004;42.566;23.164;2022-09-03T20:40:23;7.32;;;4.47;;
73697;SDS011;62004;42.566;23.164;2022-09-03T20:43:00;4.95;;;3.92;;
73697;SDS011;62004;42.566;23.164;2022-09-03T20:52:58;4.95;;;4.45;;
73697;SDS011;62004;42.566;23.164;2022-09-03T20:56:14;5.45;;;4.18;;
73697;SDS011;62004;42.566;23.164;2022-09-03T21:00:47;4.28;;;3.72;;
73697;SDS011;62004;42.566;23.164;2022-09-03T21:09:06;4.10;;;3.70;;
73697;SDS011;62004;42.566;23.164;2022-09-03T21:11:57;5.28;;;4.18;;
73697;SDS011;62004;42.566;23.164;2022-09-03T21:14:52;6.00;;;4.10;;
73697;SDS011;62004;42.566;23.164;2022-09-03T21:25:32;6.47;;;3.72;;
73697;SDS011;62004;42.566;23.164;2022-09-03T21:28:05;4.80;;;4.07;;
73697;SDS011;62004;42.566;23.164;2022-09-03T21:30:38;4.50;;;3.33;;
73697;SDS011;62004;42.566;23.164;2022-09-03T21:33:08;4.78;;;3.35;;
73697;SDS011;62004;42.566;23.164;2022-09-03T21:35:44;3.83;;;3.25;;
73697;SDS011;62004;42.566;23.164;2022-09-03T21:38:21;5.13;;;3.65;;
73697;SDS011;62004;42.566;23.164;2022-09-03T21:47:14;4.13;;;3.63;;
73697;SDS011;62004;42.566;23.164;2022-09-03T21:55:18;3.60;;;3.28;;
73697;SDS011;62004;42.566;23.164;2022-09-03T22:00:28;7.68;;;3.63;;
73697;SDS011;62004;42.566;23.164;2022-09-03T22:02:56;4.68;;;3.65;;
73697;SDS011;62004;42.566;23.164;2022-09-03T22:05:23;8.10;;;3.35;;
73697;SDS011;62004;42.566;23.164;2022-09-03T22:10:36;4.78;;;3.30;;